RJSH(METAR)
10/16 18:00
METAR RJSH 160900Z 24009KT 9999 FEW040 13/06 Q1022 RMK 1CU040 A3020=
戻る
トップページへ戻る
IMOC Co,.Ltd.